createdAt,value
2023-04-07T00:00:38.826Z,55.99
2023-04-07T00:01:40.596Z,55.70
2023-04-07T00:02:44.577Z,55.63
2023-04-07T00:03:46.623Z,55.79
2023-04-07T00:04:48.303Z,56.52
2023-04-07T00:05:49.861Z,56.51
2023-04-07T00:06:51.409Z,56.48
2023-04-07T00:07:57.102Z,55.50
2023-04-07T00:08:59.074Z,56.33
2023-04-07T00:10:00.640Z,55.88
2023-04-07T00:11:02.258Z,56.05
2023-04-07T00:12:04.697Z,55.93
2023-04-07T00:13:06.219Z,56.27
2023-04-07T00:14:07.936Z,55.40
2023-04-07T00:15:09.919Z,56.13
2023-04-07T00:16:11.491Z,55.31
2023-04-07T00:17:13.011Z,56.01
2023-04-07T00:18:14.581Z,55.60
2023-04-07T00:19:16.769Z,55.83
2023-04-07T00:20:18.395Z,55.94
2023-04-07T00:21:19.911Z,55.90
2023-04-07T00:22:22.273Z,55.52
2023-04-07T00:23:23.800Z,55.92
2023-04-07T00:24:33.781Z,55.58
2023-04-07T00:25:35.627Z,56.30
2023-04-07T00:26:37.158Z,55.53
2023-04-07T00:27:38.736Z,55.49
2023-04-07T00:28:40.295Z,55.45
2023-04-07T00:29:43.825Z,55.42
2023-04-07T00:30:45.371Z,55.68
2023-04-07T00:31:46.999Z,55.61
2023-04-07T00:32:48.653Z,56.17
2023-04-07T00:33:50.352Z,56.65
2023-04-07T00:34:51.920Z,57.92
2023-04-07T00:35:54.484Z,57.31
2023-04-07T00:36:56.225Z,56.53
2023-04-07T00:37:58.068Z,57.42
2023-04-07T00:38:59.639Z,57.50
2023-04-07T00:40:01.292Z,57.27
2023-04-07T00:41:02.901Z,57.58
2023-04-07T00:42:08.308Z,57.46
2023-04-07T00:43:09.900Z,57.01
2023-04-07T00:44:12.014Z,57.44
2023-04-07T00:45:13.529Z,58.27
2023-04-07T00:46:15.345Z,58.15
2023-04-07T00:47:17.033Z,57.80
2023-04-07T00:48:18.605Z,57.37
2023-04-07T00:49:20.113Z,58.61
2023-04-07T00:50:21.996Z,58.41
2023-04-07T00:51:23.591Z,57.17
2023-04-07T00:52:28.999Z,57.43
2023-04-07T00:53:30.667Z,57.52
2023-04-07T00:54:32.694Z,57.45
2023-04-07T00:55:34.341Z,57.90
2023-04-07T00:56:35.906Z,57.67
2023-04-07T00:57:37.913Z,58.26
2023-04-07T00:58:39.568Z,58.57
2023-04-07T00:59:41.113Z,57.96
2023-04-07T01:01:13.672Z,57.88
2023-04-07T01:02:29.389Z,56.90
2023-04-07T01:03:36.597Z,56.79
2023-04-07T01:04:41.666Z,56.24
2023-04-07T01:05:54.950Z,57.10
2023-04-07T01:07:04.053Z,57.09
2023-04-07T01:08:12.918Z,56.84
2023-04-07T01:09:21.698Z,56.92
2023-04-07T01:10:50.049Z,56.81
2023-04-07T01:12:07.898Z,57.57
2023-04-07T01:13:22.498Z,56.46
2023-04-07T01:14:25.590Z,56.35
2023-04-07T01:15:30.822Z,56.59
2023-04-07T01:16:37.602Z,57.81
2023-04-07T01:17:59.902Z,58.84
2023-04-07T01:19:15.891Z,58.95
2023-04-07T01:20:21.247Z,59.95
2023-04-07T01:21:28.734Z,59.45
2023-04-07T01:22:40.277Z,58.79
2023-04-07T01:24:06.432Z,58.76
2023-04-07T01:25:26.706Z,58.68
2023-04-07T01:26:30.693Z,59.26
2023-04-07T01:27:50.957Z,59.28
2023-04-07T01:29:11.625Z,59.36
2023-04-07T01:30:16.076Z,58.25
2023-04-07T01:31:17.707Z,57.93
2023-04-07T01:32:24.190Z,57.83
2023-04-07T01:33:32.241Z,57.42
2023-04-07T01:34:35.210Z,58.03
2023-04-07T01:35:37.596Z,57.44
2023-04-07T01:36:39.756Z,57.24
2023-04-07T01:37:42.714Z,57.34
2023-04-07T01:38:45.664Z,57.98
2023-04-07T01:39:47.219Z,57.22
2023-04-07T01:40:49.595Z,58.40
2023-04-07T01:41:53.337Z,58.17
2023-04-07T01:42:57.230Z,57.72
2023-04-07T01:44:01.051Z,58.04
2023-04-07T01:45:04.386Z,58.33
2023-04-07T01:46:06.095Z,57.90
2023-04-07T01:47:08.329Z,57.14
2023-04-07T01:48:10.932Z,57.08
2023-04-07T01:49:14.051Z,57.42
2023-04-07T01:50:17.016Z,56.98
2023-04-07T01:51:21.699Z,56.70
2023-04-07T01:52:23.525Z,57.21
2023-04-07T01:53:26.041Z,57.69
2023-04-07T01:54:28.815Z,57.75
2023-04-07T01:55:31.067Z,57.80
2023-04-07T01:56:33.149Z,57.83
2023-04-07T01:57:34.658Z,57.97
2023-04-07T01:58:36.434Z,57.36
2023-04-07T01:59:37.933Z,57.50
2023-04-07T02:00:39.793Z,57.10
2023-04-07T02:01:41.621Z,58.91
2023-04-07T02:02:46.663Z,59.01
2023-04-07T02:03:56.481Z,59.39
2023-04-07T02:05:05.832Z,59.39
2023-04-07T02:06:10.472Z,60.95
2023-04-07T02:07:39.865Z,62.02
2023-04-07T02:08:48.294Z,61.57
2023-04-07T02:09:51.557Z,61.53
2023-04-07T02:10:55.275Z,62.17
2023-04-07T02:12:00.069Z,62.41
2023-04-07T02:13:05.157Z,62.72
2023-04-07T02:14:09.092Z,61.56
2023-04-07T02:15:12.693Z,61.65
2023-04-07T02:16:16.528Z,60.97
2023-04-07T02:17:19.056Z,60.99
2023-04-07T02:18:21.592Z,60.69
2023-04-07T02:19:23.285Z,61.00
2023-04-07T02:20:25.519Z,60.89
2023-04-07T02:21:28.322Z,60.42
2023-04-07T02:22:31.009Z,60.85
2023-04-07T02:23:35.925Z,61.42
2023-04-07T02:24:37.433Z,61.91
2023-04-07T02:25:39.073Z,61.51
2023-04-07T02:26:41.863Z,61.34
2023-04-07T02:27:43.387Z,60.28
2023-04-07T02:28:44.914Z,60.20
2023-04-07T02:29:46.638Z,60.20
2023-04-07T02:30:48.180Z,59.80
2023-04-07T02:31:49.768Z,59.37
2023-04-07T02:32:51.849Z,59.12
2023-04-07T02:33:53.569Z,59.01
2023-04-07T02:34:55.481Z,58.80
2023-04-07T02:35:57.009Z,59.36
2023-04-07T02:36:58.573Z,58.48
2023-04-07T02:38:00.175Z,58.89
2023-04-07T02:39:01.707Z,58.78
2023-04-07T02:40:03.973Z,58.03
2023-04-07T02:41:06.650Z,58.61
2023-04-07T02:42:08.211Z,57.76
2023-04-07T02:43:10.405Z,57.55
2023-04-07T02:44:11.927Z,57.80
2023-04-07T02:45:13.483Z,57.29
2023-04-07T02:46:16.496Z,57.58
2023-04-07T02:47:18.309Z,57.68
2023-04-07T02:48:19.861Z,58.03
2023-04-07T02:49:21.372Z,57.67
2023-04-07T02:50:22.893Z,56.13
2023-04-07T02:51:24.578Z,56.45
2023-04-07T02:52:26.281Z,56.48
2023-04-07T02:53:27.855Z,55.95
2023-04-07T02:54:29.385Z,55.76
2023-04-07T02:55:30.926Z,55.33
2023-04-07T02:56:32.745Z,55.23
2023-04-07T02:57:34.492Z,55.47
2023-04-07T02:58:36.077Z,56.42
2023-04-07T02:59:37.612Z,55.38
2023-04-07T03:00:39.211Z,56.55
2023-04-07T03:01:41.000Z,55.95
2023-04-07T03:02:42.830Z,56.45
2023-04-07T03:03:45.317Z,57.50
2023-04-07T03:04:46.973Z,58.21
2023-04-07T03:05:48.544Z,58.78
2023-04-07T03:06:50.112Z,58.22
2023-04-07T03:07:51.637Z,58.75
2023-04-07T03:08:53.200Z,58.22
2023-04-07T03:09:54.743Z,58.63
2023-04-07T03:10:56.405Z,58.12
2023-04-07T03:11:58.375Z,58.10
2023-04-07T03:12:59.959Z,58.96
2023-04-07T03:14:01.544Z,58.38
2023-04-07T03:15:03.210Z,59.68
2023-04-07T03:16:04.872Z,59.30
2023-04-07T03:17:06.892Z,58.59
2023-04-07T03:18:08.610Z,58.89
2023-04-07T03:19:10.295Z,58.95
2023-04-07T03:20:12.134Z,58.56
2023-04-07T03:21:13.764Z,58.78
2023-04-07T03:22:15.354Z,57.79
2023-04-07T03:23:17.110Z,57.63
2023-04-07T03:24:18.773Z,57.68
2023-04-07T03:25:20.367Z,58.12
2023-04-07T03:26:21.880Z,58.15
2023-04-07T03:27:23.428Z,58.06
2023-04-07T03:28:24.949Z,57.30
2023-04-07T03:29:26.576Z,57.44
2023-04-07T03:30:28.135Z,57.76
2023-04-07T03:31:30.516Z,58.79
2023-04-07T03:32:32.124Z,57.92
2023-04-07T03:33:33.802Z,57.85
2023-04-07T03:34:35.657Z,57.98
2023-04-07T03:35:37.285Z,59.86
2023-04-07T03:36:38.841Z,60.31
2023-04-07T03:37:40.838Z,62.14
2023-04-07T03:38:42.406Z,62.69
2023-04-07T03:39:44.118Z,63.22
2023-04-07T03:40:46.064Z,64.38
2023-04-07T03:41:47.685Z,64.73
2023-04-07T03:42:49.218Z,65.12
2023-04-07T03:43:51.351Z,65.44
2023-04-07T03:44:53.439Z,65.52
2023-04-07T03:45:55.028Z,66.46
2023-04-07T03:46:56.547Z,66.64
2023-04-07T03:47:58.160Z,66.73
2023-04-07T03:48:59.733Z,67.13
2023-04-07T03:50:01.313Z,66.99
2023-04-07T03:51:02.977Z,67.02
2023-04-07T03:52:05.334Z,66.81
2023-04-07T03:53:07.768Z,67.37
2023-04-07T03:54:09.306Z,67.37
2023-04-07T03:55:11.073Z,67.54
2023-04-07T03:56:14.516Z,67.84
2023-04-07T03:57:17.305Z,67.69
2023-04-07T03:58:19.324Z,68.10
2023-04-07T03:59:21.613Z,68.12
2023-04-07T04:00:25.318Z,68.46
2023-04-07T04:01:31.208Z,68.76
2023-04-07T04:02:33.332Z,68.91
2023-04-07T04:03:36.465Z,68.35
2023-04-07T04:04:41.381Z,68.51
2023-04-07T04:05:42.931Z,67.86
2023-04-07T04:06:44.462Z,68.22
2023-04-07T04:07:46.008Z,68.25
2023-04-07T04:08:48.898Z,67.93
2023-04-07T04:09:50.460Z,67.60
2023-04-07T04:10:52.236Z,68.16
2023-04-07T04:11:53.765Z,67.73
2023-04-07T04:12:55.716Z,68.03
2023-04-07T04:13:58.971Z,67.92
2023-04-07T04:15:00.686Z,68.01
2023-04-07T04:16:03.307Z,67.46
2023-04-07T04:17:05.602Z,66.63
2023-04-07T04:18:08.968Z,67.99
2023-04-07T04:19:10.904Z,82.14
2023-04-07T04:20:13.530Z,69.53
2023-04-07T04:21:15.351Z,66.41
2023-04-07T04:22:17.396Z,66.54
2023-04-07T04:23:18.918Z,66.12
2023-04-07T04:24:20.662Z,66.07
2023-04-07T04:25:22.385Z,66.19
2023-04-07T04:26:26.164Z,66.62
2023-04-07T04:27:28.207Z,66.04
2023-04-07T04:28:30.120Z,66.27
2023-04-07T04:29:32.916Z,66.46
2023-04-07T04:30:34.648Z,65.89
2023-04-07T04:31:36.341Z,65.91
2023-04-07T04:32:38.351Z,66.56
2023-04-07T04:33:39.942Z,66.21
2023-04-07T04:34:42.226Z,66.50
2023-04-07T04:35:45.373Z,65.52
2023-04-07T04:36:49.158Z,65.45
2023-04-07T04:37:51.154Z,67.70
2023-04-07T04:38:52.704Z,65.84
2023-04-07T04:39:54.236Z,65.39
2023-04-07T04:40:55.784Z,64.58
2023-04-07T04:41:57.482Z,64.22
2023-04-07T04:42:59.006Z,64.44
2023-04-07T04:44:00.592Z,64.32
2023-04-07T04:45:02.120Z,63.45
2023-04-07T04:46:03.757Z,63.80
2023-04-07T04:47:05.518Z,62.75
2023-04-07T04:48:07.267Z,62.88
2023-04-07T04:49:08.842Z,63.07
2023-04-07T04:50:11.142Z,63.31
2023-04-07T04:51:12.685Z,63.40
2023-04-07T04:52:14.248Z,63.92
2023-04-07T04:53:15.923Z,63.56
2023-04-07T04:54:19.282Z,64.34
2023-04-07T04:55:21.015Z,64.37
2023-04-07T04:56:22.614Z,65.19
2023-04-07T04:57:24.306Z,64.41
2023-04-07T04:58:26.433Z,64.43
2023-04-07T04:59:28.101Z,64.16
2023-04-07T05:00:29.723Z,63.50
2023-04-07T05:01:33.345Z,63.48
2023-04-07T05:02:35.710Z,63.14
2023-04-07T05:03:37.623Z,63.66
2023-04-07T05:04:39.462Z,62.99
2023-04-07T05:05:41.300Z,62.46
2023-04-07T05:06:42.814Z,62.87
2023-04-07T05:07:44.407Z,61.78
2023-04-07T05:08:46.236Z,61.26
2023-04-07T05:09:47.764Z,61.23
2023-04-07T05:10:49.357Z,59.66
2023-04-07T05:11:50.931Z,59.04
2023-04-07T05:12:52.558Z,59.74
2023-04-07T05:13:54.395Z,59.45
2023-04-07T05:14:56.076Z,58.96
2023-04-07T05:15:57.775Z,59.70
2023-04-07T05:17:00.876Z,58.72
2023-04-07T05:18:02.720Z,60.12
2023-04-07T05:19:04.515Z,59.77
2023-04-07T05:20:06.857Z,60.07
2023-04-07T05:21:08.386Z,59.03
2023-04-07T05:22:09.943Z,59.78
2023-04-07T05:23:11.552Z,60.31
2023-04-07T05:24:13.063Z,60.53
2023-04-07T05:25:14.591Z,60.44
2023-04-07T05:26:16.236Z,60.62
2023-04-07T05:27:17.730Z,61.10
2023-04-07T05:28:19.532Z,60.06
2023-04-07T05:29:21.241Z,60.12
2023-04-07T05:30:22.840Z,61.17
2023-04-07T05:31:24.430Z,60.52
2023-04-07T05:32:28.089Z,59.78
2023-04-07T05:33:29.824Z,59.58
2023-04-07T05:34:31.373Z,58.73
2023-04-07T05:35:32.919Z,58.13
2023-04-07T05:36:35.406Z,58.28
2023-04-07T05:37:36.951Z,58.50
2023-04-07T05:38:38.514Z,57.93
2023-04-07T05:39:40.052Z,58.34
2023-04-07T05:40:41.594Z,59.26
2023-04-07T05:41:43.186Z,59.66
2023-04-07T05:42:44.794Z,59.64
2023-04-07T05:43:46.360Z,61.26
2023-04-07T05:44:47.963Z,63.21
2023-04-07T05:45:49.580Z,62.61
2023-04-07T05:46:51.164Z,62.44
2023-04-07T05:47:52.852Z,63.89
2023-04-07T05:48:54.492Z,64.32
2023-04-07T05:49:56.140Z,65.44
2023-04-07T05:50:58.142Z,64.11
2023-04-07T05:51:59.732Z,64.48
2023-04-07T05:53:01.436Z,63.81
2023-04-07T05:54:06.483Z,62.07
2023-04-07T05:55:08.484Z,63.58
2023-04-07T05:56:10.261Z,64.86
2023-04-07T05:57:11.895Z,65.58
2023-04-07T05:58:13.442Z,66.02
2023-04-07T05:59:15.036Z,65.26
2023-04-07T06:00:16.833Z,66.64
2023-04-07T06:01:18.408Z,64.95
2023-04-07T06:02:20.169Z,63.16
2023-04-07T06:03:21.845Z,62.81
2023-04-07T06:04:23.528Z,63.05
2023-04-07T06:05:25.581Z,62.03
2023-04-07T06:06:27.793Z,61.67
2023-04-07T06:07:29.362Z,61.49
2023-04-07T06:08:30.974Z,62.40
2023-04-07T06:09:32.540Z,60.96
2023-04-07T06:10:34.062Z,60.60
2023-04-07T06:11:35.901Z,60.01
2023-04-07T06:12:37.420Z,60.89
2023-04-07T06:13:39.006Z,61.62
2023-04-07T06:14:40.634Z,58.97
2023-04-07T06:15:42.219Z,57.08
2023-04-07T06:16:43.977Z,57.61
2023-04-07T06:17:45.959Z,58.42
2023-04-07T06:18:47.626Z,57.99
2023-04-07T06:19:49.298Z,57.61
2023-04-07T06:20:50.965Z,57.27
2023-04-07T06:21:52.535Z,56.63
2023-04-07T06:22:55.057Z,57.38
2023-04-07T06:23:56.659Z,56.13
2023-04-07T06:24:58.219Z,53.06
2023-04-07T06:25:59.779Z,51.91
2023-04-07T06:27:02.154Z,51.80
2023-04-07T06:28:03.739Z,51.30
2023-04-07T06:29:06.015Z,50.56
2023-04-07T06:30:08.383Z,50.28
2023-04-07T06:31:10.014Z,50.50
2023-04-07T06:32:12.653Z,50.51
2023-04-07T06:33:14.230Z,50.71
2023-04-07T06:34:16.564Z,50.23
2023-04-07T06:35:18.143Z,48.96
2023-04-07T06:36:21.211Z,49.38
2023-04-07T06:37:25.060Z,47.34
2023-04-07T06:38:26.688Z,48.81
2023-04-07T06:39:28.509Z,47.66
2023-04-07T06:40:30.055Z,47.60
2023-04-07T06:41:31.839Z,46.70
2023-04-07T06:42:33.404Z,46.43
2023-04-07T06:43:34.939Z,46.88
2023-04-07T06:44:36.505Z,45.04
2023-04-07T06:45:38.522Z,44.92
2023-04-07T06:46:41.781Z,45.14
2023-04-07T06:47:43.505Z,43.94
2023-04-07T06:48:46.376Z,43.68
2023-04-07T06:49:47.927Z,44.32
2023-04-07T06:50:50.127Z,43.75
2023-04-07T06:51:51.725Z,44.17
2023-04-07T06:52:53.276Z,44.07
2023-04-07T06:53:54.874Z,45.47
2023-04-07T06:54:56.436Z,45.38
2023-04-07T06:56:11.998Z,44.27
2023-04-07T06:57:13.743Z,43.46
2023-04-07T06:58:15.677Z,47.51
2023-04-07T06:59:17.266Z,46.08
2023-04-07T07:00:19.204Z,41.77
2023-04-07T07:01:20.908Z,42.50
2023-04-07T07:02:22.599Z,43.32
2023-04-07T07:03:25.856Z,41.89
2023-04-07T07:04:27.772Z,43.10
2023-04-07T07:05:29.492Z,45.13
2023-04-07T07:06:31.808Z,43.33
2023-04-07T07:07:33.306Z,42.27
2023-04-07T07:08:35.218Z,42.24
2023-04-07T07:09:37.157Z,43.19
2023-04-07T07:10:38.695Z,42.71
2023-04-07T07:11:40.649Z,42.64
2023-04-07T07:12:42.144Z,41.00
2023-04-07T07:13:45.049Z,41.66
2023-04-07T07:14:46.553Z,41.88
2023-04-07T07:15:48.756Z,42.00
2023-04-07T07:16:50.651Z,40.26
2023-04-07T07:17:52.219Z,41.38
2023-04-07T07:18:53.807Z,42.12
2023-04-07T07:19:55.621Z,40.30
2023-04-07T07:20:57.188Z,40.40
2023-04-07T07:21:58.775Z,39.85
2023-04-07T07:23:00.374Z,39.99
2023-04-07T07:24:01.948Z,39.09
2023-04-07T07:25:03.940Z,38.35
2023-04-07T07:26:05.567Z,37.78
2023-04-07T07:27:07.141Z,39.00
2023-04-07T07:28:09.680Z,39.86
2023-04-07T07:29:11.331Z,38.99
2023-04-07T07:30:13.184Z,39.92
2023-04-07T07:31:15.832Z,37.50
2023-04-07T07:32:17.524Z,38.25
2023-04-07T07:33:19.148Z,36.97
2023-04-07T07:34:20.790Z,36.26
2023-04-07T07:35:22.913Z,36.48
2023-04-07T07:36:24.493Z,37.22
2023-04-07T07:37:26.038Z,36.05
2023-04-07T07:38:27.702Z,35.73
2023-04-07T07:39:29.963Z,35.33
2023-04-07T07:40:31.692Z,35.11
2023-04-07T07:41:33.302Z,36.88
2023-04-07T07:42:34.827Z,35.22
2023-04-07T07:43:37.251Z,37.03
2023-04-07T07:44:38.846Z,35.64
2023-04-07T07:45:40.402Z,36.45
2023-04-07T07:46:42.036Z,37.49
2023-04-07T07:47:43.747Z,36.84
2023-04-07T07:48:46.638Z,37.01
2023-04-07T07:49:48.229Z,35.84
2023-04-07T07:50:50.717Z,35.67
2023-04-07T07:51:53.151Z,36.32
2023-04-07T07:52:54.765Z,36.41
2023-04-07T07:53:56.608Z,35.67
2023-04-07T07:54:58.290Z,36.20
2023-04-07T07:56:00.138Z,37.86
2023-04-07T07:57:03.111Z,35.71
2023-04-07T07:58:04.642Z,34.93
2023-04-07T07:59:09.244Z,35.49
2023-04-07T08:00:11.482Z,36.39
2023-04-07T08:01:13.044Z,35.44
2023-04-07T08:02:14.784Z,34.78
2023-04-07T08:03:17.229Z,34.43
2023-04-07T08:04:18.998Z,33.57
2023-04-07T08:05:20.944Z,33.91
2023-04-07T08:06:22.504Z,33.54
2023-04-07T08:07:24.780Z,34.40
2023-04-07T08:08:26.405Z,35.83
2023-04-07T08:09:27.964Z,34.56
2023-04-07T08:10:29.608Z,34.67
2023-04-07T08:11:31.136Z,35.59
2023-04-07T08:12:32.671Z,35.47
2023-04-07T08:13:34.352Z,37.58
2023-04-07T08:14:36.048Z,36.51
2023-04-07T08:15:37.756Z,36.16
2023-04-07T08:16:39.409Z,34.28
2023-04-07T08:17:41.176Z,35.77
2023-04-07T08:18:42.740Z,36.80
2023-04-07T08:19:44.341Z,36.57
2023-04-07T08:20:46.797Z,35.49
2023-04-07T08:21:48.308Z,34.55
2023-04-07T08:22:49.872Z,35.00
2023-04-07T08:23:51.517Z,34.88
2023-04-07T08:24:53.048Z,34.57
2023-04-07T08:25:54.608Z,33.54
2023-04-07T08:26:56.555Z,34.66
2023-04-07T08:27:58.082Z,34.01
2023-04-07T08:28:59.672Z,33.51
2023-04-07T08:30:03.842Z,34.04
2023-04-07T08:31:05.667Z,33.69
2023-04-07T08:32:07.317Z,33.94
2023-04-07T08:33:08.899Z,34.17
2023-04-07T08:34:10.688Z,34.63
2023-04-07T08:35:12.533Z,33.76
2023-04-07T08:36:14.126Z,34.23
2023-04-07T08:37:15.711Z,35.18
2023-04-07T08:38:17.642Z,36.01
2023-04-07T08:39:19.649Z,34.60
2023-04-07T08:40:21.479Z,35.79
2023-04-07T08:41:40.965Z,35.67
2023-04-07T08:42:52.733Z,35.61
2023-04-07T08:43:54.392Z,34.02
2023-04-07T08:45:00.176Z,34.92
2023-04-07T08:46:02.842Z,34.84
2023-04-07T08:47:08.574Z,35.60
2023-04-07T08:48:17.836Z,37.16
2023-04-07T08:49:21.305Z,35.56
2023-04-07T08:50:26.331Z,36.30
2023-04-07T08:51:32.459Z,36.84
2023-04-07T08:52:46.210Z,36.33
2023-04-07T08:53:50.498Z,36.88
2023-04-07T08:54:53.327Z,36.12
2023-04-07T08:55:57.202Z,36.07
2023-04-07T08:56:58.857Z,36.35
2023-04-07T08:58:02.149Z,36.62
2023-04-07T08:59:06.480Z,35.65
2023-04-07T09:00:09.264Z,35.18
2023-04-07T09:01:11.639Z,38.84
2023-04-07T09:02:14.565Z,36.57
2023-04-07T09:03:17.928Z,36.64
2023-04-07T09:04:19.661Z,34.84
2023-04-07T09:05:21.753Z,35.55
2023-04-07T09:06:23.907Z,35.96
2023-04-07T09:07:25.694Z,35.19
2023-04-07T09:08:27.326Z,37.08
2023-04-07T09:09:29.625Z,37.05
2023-04-07T09:10:31.406Z,35.91
2023-04-07T09:11:37.261Z,36.69
2023-04-07T09:12:38.979Z,35.92
2023-04-07T09:13:40.638Z,36.23
2023-04-07T09:14:42.309Z,35.39
2023-04-07T09:15:44.164Z,35.31
2023-04-07T09:16:46.295Z,36.91
2023-04-07T09:17:48.154Z,37.53
2023-04-07T09:18:50.001Z,36.41
2023-04-07T09:19:53.094Z,37.61
2023-04-07T09:21:04.520Z,35.35
2023-04-07T09:22:06.478Z,35.63
2023-04-07T09:23:08.502Z,35.50
2023-04-07T09:24:24.855Z,37.14
2023-04-07T09:25:30.279Z,35.69
2023-04-07T09:26:31.951Z,33.72
2023-04-07T09:27:33.465Z,34.65
2023-04-07T09:28:42.288Z,35.58
2023-04-07T09:29:46.318Z,33.93
2023-04-07T09:30:54.725Z,34.28
2023-04-07T09:31:57.779Z,33.71
2023-04-07T09:33:00.975Z,34.46
2023-04-07T09:34:05.270Z,34.81
2023-04-07T09:35:07.492Z,34.56
2023-04-07T09:36:09.176Z,33.95
2023-04-07T09:37:22.587Z,34.78
2023-04-07T09:38:33.558Z,34.21
2023-04-07T09:39:52.047Z,34.40
2023-04-07T09:41:07.687Z,33.68
2023-04-07T09:42:09.332Z,33.29
2023-04-07T09:43:17.079Z,33.80
2023-04-07T09:44:19.717Z,34.88
2023-04-07T09:46:33.902Z,34.09
2023-04-07T09:47:35.540Z,35.71
2023-04-07T09:48:37.193Z,35.99
2023-04-07T09:49:54.890Z,38.11
2023-04-07T09:51:08.196Z,34.59
2023-04-07T09:52:11.084Z,35.71
2023-04-07T09:53:12.610Z,34.88
2023-04-07T09:54:23.254Z,36.34
2023-04-07T09:55:24.899Z,34.91
2023-04-07T09:56:27.137Z,36.10
2023-04-07T09:57:28.841Z,34.46
2023-04-07T09:58:30.622Z,35.89
2023-04-07T09:59:33.734Z,33.94
2023-04-07T10:00:35.947Z,32.04
2023-04-07T10:01:38.296Z,33.34
2023-04-07T10:02:40.552Z,31.57
2023-04-07T10:03:42.695Z,32.35
2023-04-07T10:04:44.790Z,32.63
2023-04-07T10:05:46.960Z,32.85
2023-04-07T10:06:49.172Z,33.79
2023-04-07T10:07:51.540Z,36.27
2023-04-07T10:08:53.173Z,36.34
2023-04-07T10:09:54.796Z,34.00
2023-04-07T10:10:57.483Z,35.52
2023-04-07T10:11:59.946Z,35.04
2023-04-07T10:13:05.171Z,37.30
2023-04-07T10:14:07.208Z,37.55
2023-04-07T10:15:12.165Z,37.37
2023-04-07T10:16:13.910Z,33.21
2023-04-07T10:17:19.323Z,34.83
2023-04-07T10:18:21.336Z,35.93
2023-04-07T10:19:24.407Z,34.95
2023-04-07T10:20:26.981Z,34.88
2023-04-07T10:21:29.043Z,32.74
2023-04-07T10:22:33.376Z,33.59
2023-04-07T10:23:43.858Z,34.42
2023-04-07T10:25:03.650Z,35.75
2023-04-07T10:26:08.131Z,35.61
2023-04-07T10:27:14.162Z,34.87
2023-04-07T10:28:18.023Z,33.71
2023-04-07T10:29:21.094Z,33.19
2023-04-07T10:30:31.019Z,35.09
2023-04-07T10:31:33.425Z,33.56
2023-04-07T10:32:47.822Z,33.37
2023-04-07T10:33:51.605Z,31.77
2023-04-07T10:34:53.730Z,33.00
2023-04-07T10:36:06.192Z,32.90
2023-04-07T10:37:14.823Z,33.73
2023-04-07T10:38:18.475Z,32.71
2023-04-07T10:39:20.812Z,32.38
2023-04-07T10:40:22.302Z,32.67
2023-04-07T10:41:41.480Z,33.39
2023-04-07T10:42:42.947Z,33.08
2023-04-07T10:43:45.163Z,34.28
2023-04-07T10:44:48.868Z,34.43
2023-04-07T10:45:52.282Z,34.17
2023-04-07T10:46:53.809Z,34.73
2023-04-07T10:47:58.535Z,31.86
2023-04-07T10:49:10.285Z,32.90
2023-04-07T10:50:19.492Z,33.59
2023-04-07T10:51:21.199Z,32.96
2023-04-07T10:52:24.281Z,33.55
2023-04-07T10:53:25.822Z,36.56
2023-04-07T10:54:29.363Z,37.79
2023-04-07T10:55:38.187Z,38.26
2023-04-07T10:57:14.759Z,35.55
2023-04-07T10:58:32.068Z,32.75
2023-04-07T10:59:34.688Z,32.73
2023-04-07T11:00:36.371Z,31.45
2023-04-07T11:01:38.241Z,31.45
2023-04-07T11:02:40.727Z,31.82
2023-04-07T11:03:53.769Z,32.26
2023-04-07T11:04:55.484Z,33.76
2023-04-07T11:06:04.974Z,33.95
2023-04-07T11:07:07.305Z,37.55
2023-04-07T11:08:09.167Z,37.82
2023-04-07T11:09:19.409Z,36.49
2023-04-07T11:10:22.232Z,33.60
2023-04-07T11:11:38.825Z,33.87
2023-04-07T11:12:40.465Z,33.52
2023-04-07T11:13:42.521Z,35.91
2023-04-07T11:14:44.156Z,35.88
2023-04-07T11:15:51.272Z,33.20
2023-04-07T11:16:53.568Z,34.49
2023-04-07T11:18:12.002Z,35.74
2023-04-07T11:19:13.580Z,34.35
2023-04-07T11:20:15.575Z,34.21
2023-04-07T11:21:20.227Z,32.88
2023-04-07T11:22:30.011Z,32.30
2023-04-07T11:23:40.106Z,31.24
2023-04-07T11:24:41.894Z,31.82
2023-04-07T11:25:45.279Z,31.78
2023-04-07T11:26:47.961Z,31.92
2023-04-07T11:27:51.002Z,31.31
2023-04-07T11:28:55.152Z,31.61
2023-04-07T11:29:57.501Z,31.62
2023-04-07T11:31:00.114Z,32.35
2023-04-07T11:32:02.722Z,32.83
2023-04-07T11:33:04.678Z,31.82
2023-04-07T11:34:06.334Z,31.94
2023-04-07T11:35:14.001Z,31.60
2023-04-07T11:36:27.194Z,31.10
2023-04-07T11:37:29.135Z,30.92
2023-04-07T11:38:36.489Z,31.60
2023-04-07T11:39:38.629Z,31.77
2023-04-07T11:40:40.334Z,32.06
2023-04-07T11:41:47.313Z,33.75
2023-04-07T11:42:48.872Z,33.82
2023-04-07T11:44:04.429Z,34.01
2023-04-07T11:45:16.462Z,34.75
2023-04-07T11:46:19.293Z,34.44
2023-04-07T11:47:21.570Z,33.91
2023-04-07T11:48:30.683Z,34.67
2023-04-07T11:49:32.496Z,31.95
2023-04-07T11:50:42.613Z,31.26
2023-04-07T11:51:45.009Z,31.81
2023-04-07T11:52:48.456Z,31.42
2023-04-07T11:53:56.958Z,31.29
2023-04-07T11:55:00.287Z,32.10
2023-04-07T11:56:07.734Z,31.43
2023-04-07T11:57:12.453Z,31.40
2023-04-07T11:58:14.516Z,32.32
2023-04-07T11:59:20.717Z,31.90
2023-04-07T12:00:22.443Z,32.77
2023-04-07T12:01:27.158Z,32.57
2023-04-07T12:02:35.088Z,32.45
2023-04-07T12:03:37.953Z,33.28
2023-04-07T12:04:56.003Z,32.89
2023-04-07T12:05:57.692Z,32.14
2023-04-07T12:07:17.139Z,33.14
2023-04-07T12:08:19.701Z,33.40
2023-04-07T12:09:32.405Z,34.23
2023-04-07T12:10:35.176Z,32.51
2023-04-07T12:11:37.329Z,35.07
2023-04-07T12:12:39.623Z,32.96
2023-04-07T12:13:41.488Z,33.77
2023-04-07T12:14:43.115Z,33.03
2023-04-07T12:15:44.692Z,33.89
2023-04-07T12:16:46.321Z,31.65
2023-04-07T12:17:49.440Z,32.88
2023-04-07T12:18:51.692Z,32.44
2023-04-07T12:19:53.791Z,33.08
2023-04-07T12:20:56.558Z,32.58
2023-04-07T12:21:58.331Z,32.42
2023-04-07T12:23:00.564Z,31.82
2023-04-07T12:24:02.454Z,32.57
2023-04-07T12:25:04.181Z,33.37
2023-04-07T12:26:06.395Z,34.07
2023-04-07T12:27:08.410Z,33.86
2023-04-07T12:28:09.975Z,33.42
2023-04-07T12:29:11.699Z,32.39
2023-04-07T12:30:14.036Z,32.92
2023-04-07T12:31:16.028Z,32.11
2023-04-07T12:32:17.681Z,31.59
2023-04-07T12:33:19.459Z,31.61
2023-04-07T12:34:21.545Z,31.60
2023-04-07T12:35:23.161Z,32.63
2023-04-07T12:36:27.654Z,31.92
2023-04-07T12:37:29.243Z,32.26
2023-04-07T12:38:30.757Z,33.39
2023-04-07T12:39:33.490Z,32.94
2023-04-07T12:40:36.002Z,31.86
2023-04-07T12:41:38.766Z,32.21
2023-04-07T12:42:40.293Z,31.15
2023-04-07T12:43:41.840Z,31.60
2023-04-07T12:44:43.352Z,31.54
2023-04-07T12:45:44.997Z,30.92
2023-04-07T12:46:46.968Z,32.20
2023-04-07T12:47:48.709Z,31.58
2023-04-07T12:48:51.448Z,32.76
2023-04-07T12:49:52.975Z,32.93
2023-04-07T12:50:54.798Z,32.54
2023-04-07T12:51:57.519Z,32.55
2023-04-07T12:52:59.853Z,32.70
2023-04-07T12:54:02.502Z,35.25
2023-04-07T12:55:04.859Z,31.07
2023-04-07T12:56:06.579Z,31.09
2023-04-07T12:57:08.088Z,31.37
2023-04-07T12:58:09.660Z,31.71
2023-04-07T12:59:11.631Z,31.79
2023-04-07T13:00:14.400Z,31.96
2023-04-07T13:01:16.818Z,32.08
2023-04-07T13:02:19.616Z,31.62
2023-04-07T13:03:21.353Z,32.50
2023-04-07T13:04:24.501Z,31.17
2023-04-07T13:05:26.240Z,31.66
2023-04-07T13:06:27.905Z,34.10
2023-04-07T13:07:29.559Z,33.51
2023-04-07T13:08:31.190Z,34.54
2023-04-07T13:09:33.314Z,34.47
2023-04-07T13:10:34.858Z,35.83
2023-04-07T13:11:36.676Z,33.51
2023-04-07T13:12:39.914Z,32.55
2023-04-07T13:13:41.461Z,34.21
2023-04-07T13:14:52.805Z,35.14
2023-04-07T13:15:59.380Z,34.50
2023-04-07T13:17:01.053Z,32.98
2023-04-07T13:18:02.851Z,32.66
2023-04-07T13:19:04.553Z,32.43
2023-04-07T13:20:06.927Z,32.81
2023-04-07T13:22:18.212Z,31.63
2023-04-07T13:23:23.120Z,31.96
2023-04-07T13:24:25.220Z,30.95
2023-04-07T13:25:27.353Z,31.52
2023-04-07T13:26:28.923Z,31.54
2023-04-07T13:27:30.581Z,31.48
2023-04-07T13:28:32.192Z,31.15
2023-04-07T13:29:33.777Z,31.71
2023-04-07T13:30:35.409Z,32.65
2023-04-07T13:31:37.071Z,31.92
2023-04-07T13:32:38.648Z,31.91
2023-04-07T13:33:41.216Z,32.06
2023-04-07T13:34:43.947Z,31.44
2023-04-07T13:35:45.921Z,32.93
2023-04-07T13:36:47.459Z,31.73
2023-04-07T13:37:49.004Z,32.30